sensor_id;sensor_type;location;lat;lon;timestamp;pressure;altitude;pressure_sealevel;temperature;humidity
14594;BME280;7383;52.354;9.756;2023-05-24T00:00:29;-12689.63;;;13.48;100.00
14594;BME280;7383;52.354;9.756;2023-05-24T00:02:56;-12689.63;;;13.48;100.00
14594;BME280;7383;52.354;9.756;2023-05-24T00:05:23;-12688.13;;;13.40;100.00
14594;BME280;7383;52.354;9.756;2023-05-24T00:07:49;-12688.41;;;13.41;100.00
14594;BME280;7383;52.354;9.756;2023-05-24T00:10:17;-12689.09;;;13.45;100.00
14594;BME280;7383;52.354;9.756;2023-05-24T00:12:44;-12688.56;;;13.42;100.00
14594;BME280;7383;52.354;9.756;2023-05-24T00:15:10;-12687.44;;;13.36;100.00
14594;BME280;7383;52.354;9.756;2023-05-24T00:17:36;-12686.91;;;13.32;100.00
14594;BME280;7383;52.354;9.756;2023-05-24T00:20:07;-12686.50;;;13.30;100.00
14594;BME280;7383;52.354;9.756;2023-05-24T00:22:34;-12686.50;;;13.30;100.00
14594;BME280;7383;52.354;9.756;2023-05-24T00:25:01;-12685.44;;;13.24;100.00
14594;BME280;7383;52.354;9.756;2023-05-24T00:27:30;-12685.88;;;13.26;100.00
14594;BME280;7383;52.354;9.756;2023-05-24T00:29:57;-12685.88;;;13.26;100.00
14594;BME280;7383;52.354;9.756;2023-05-24T00:32:23;-12684.91;;;13.21;100.00
14594;BME280;7383;52.354;9.756;2023-05-24T00:34:50;-12684.50;;;13.18;100.00
14594;BME280;7383;52.354;9.756;2023-05-24T00:37:16;-12684.50;;;13.18;100.00
14594;BME280;7383;52.354;9.756;2023-05-24T00:39:43;-12683.88;;;13.15;100.00
14594;BME280;7383;52.354;9.756;2023-05-24T00:42:09;-12683.69;;;13.14;100.00
14594;BME280;7383;52.354;9.756;2023-05-24T00:44:37;-12683.09;;;13.10;100.00
14594;BME280;7383;52.354;9.756;2023-05-24T00:47:03;-12682.66;;;13.08;100.00
14594;BME280;7383;52.354;9.756;2023-05-24T00:49:30;-12682.75;;;13.08;100.00
14594;BME280;7383;52.354;9.756;2023-05-24T00:51:57;-12682.22;;;13.05;100.00
14594;BME280;7383;52.354;9.756;2023-05-24T00:54:24;-12682.41;;;13.06;100.00
14594;BME280;7383;52.354;9.756;2023-05-24T00:56:51;-12682.06;;;13.04;100.00
14594;BME280;7383;52.354;9.756;2023-05-24T00:59:18;-12681.78;;;13.03;100.00
14594;BME280;7383;52.354;9.756;2023-05-24T01:01:46;-12681.63;;;13.02;100.00
14594;BME280;7383;52.354;9.756;2023-05-24T01:04:13;-12679.88;;;12.92;100.00
14594;BME280;7383;52.354;9.756;2023-05-24T01:06:50;-12679.69;;;12.91;100.00
14594;BME280;7383;52.354;9.756;2023-05-24T01:09:28;-12679.78;;;12.91;100.00
14594;BME280;7383;52.354;9.756;2023-05-24T01:12:06;-12680.91;;;12.98;100.00
14594;BME280;7383;52.354;9.756;2023-05-24T01:14:44;-12681.78;;;13.03;100.00
14594;BME280;7383;52.354;9.756;2023-05-24T01:17:18;-12681.44;;;13.01;100.00
14594;BME280;7383;52.354;9.756;2023-05-24T01:19:55;-12680.22;;;12.94;100.00
14594;BME280;7383;52.354;9.756;2023-05-24T01:25:18;-12679.25;;;12.88;100.00
14594;BME280;7383;52.354;9.756;2023-05-24T01:27:49;-12678.75;;;12.85;100.00
14594;BME280;7383;52.354;9.756;2023-05-24T01:30:16;-12678.41;;;12.83;100.00
14594;BME280;7383;52.354;9.756;2023-05-24T01:32:43;-12677.19;;;12.76;100.00
14594;BME280;7383;52.354;9.756;2023-05-24T01:35:09;-12676.22;;;12.70;100.00
14594;BME280;7383;52.354;9.756;2023-05-24T01:37:36;-12676.75;;;12.73;100.00
14594;BME280;7383;52.354;9.756;2023-05-24T01:40:03;-12676.13;;;12.70;100.00
14594;BME280;7383;52.354;9.756;2023-05-24T01:42:35;-12675.78;;;12.68;100.00
14594;BME280;7383;52.354;9.756;2023-05-24T01:45:13;-12676.75;;;12.73;100.00
14594;BME280;7383;52.354;9.756;2023-05-24T01:47:49;-12676.38;;;12.71;100.00
14594;BME280;7383;52.354;9.756;2023-05-24T01:50:22;-12675.34;;;12.65;100.00
14594;BME280;7383;52.354;9.756;2023-05-24T01:52:51;-12675.25;;;12.65;100.00
14594;BME280;7383;52.354;9.756;2023-05-24T01:55:17;-12674.81;;;12.62;100.00
14594;BME280;7383;52.354;9.756;2023-05-24T01:57:45;-12675.25;;;12.65;100.00
14594;BME280;7383;52.354;9.756;2023-05-24T02:00:17;-12675.59;;;12.67;100.00
14594;BME280;7383;52.354;9.756;2023-05-24T02:02:44;-12675.59;;;12.67;100.00
14594;BME280;7383;52.354;9.756;2023-05-24T02:05:11;-12675.19;;;12.64;100.00
14594;BME280;7383;52.354;9.756;2023-05-24T02:07:37;-12675.59;;;12.67;100.00
14594;BME280;7383;52.354;9.756;2023-05-24T02:10:06;-12676.66;;;12.73;100.00
14594;BME280;7383;52.354;9.756;2023-05-24T02:12:32;-12677.25;;;12.76;100.00
14594;BME280;7383;52.354;9.756;2023-05-24T02:14:59;-12677.25;;;12.76;100.00
14594;BME280;7383;52.354;9.756;2023-05-24T02:17:27;-12678.22;;;12.82;100.00
14594;BME280;7383;52.354;9.756;2023-05-24T02:19:57;-12677.69;;;12.79;100.00
14594;BME280;7383;52.354;9.756;2023-05-24T02:22:23;-12677.19;;;12.76;100.00
14594;BME280;7383;52.354;9.756;2023-05-24T02:24:50;-12676.13;;;12.70;100.00
14594;BME280;7383;52.354;9.756;2023-05-24T02:27:16;-12675.59;;;12.67;100.00
14594;BME280;7383;52.354;9.756;2023-05-24T02:29:42;-12675.69;;;12.67;100.00
14594;BME280;7383;52.354;9.756;2023-05-24T02:32:09;-12675.78;;;12.68;100.00
14594;BME280;7383;52.354;9.756;2023-05-24T02:37:09;-12675.34;;;12.65;100.00
14594;BME280;7383;52.354;9.756;2023-05-24T02:39:38;-12674.56;;;12.61;100.00
14594;BME280;7383;52.354;9.756;2023-05-24T02:42:05;-12673.88;;;12.57;100.00
14594;BME280;7383;52.354;9.756;2023-05-24T02:44:32;-12674.75;;;12.62;100.00
14594;BME280;7383;52.354;9.756;2023-05-24T02:46:59;-12673.78;;;12.56;100.00
14594;BME280;7383;52.354;9.756;2023-05-24T02:49:25;-12673.97;;;12.57;100.00
14594;BME280;7383;52.354;9.756;2023-05-24T02:51:51;-12673.53;;;12.55;100.00
14594;BME280;7383;52.354;9.756;2023-05-24T02:54:19;-12673.44;;;12.54;100.00
14594;BME280;7383;52.354;9.756;2023-05-24T02:56:45;-12673.00;;;12.52;100.00
14594;BME280;7383;52.354;9.756;2023-05-24T02:59:12;-12672.81;;;12.51;100.00
14594;BME280;7383;52.354;9.756;2023-05-24T03:01:38;-12673.09;;;12.52;100.00
14594;BME280;7383;52.354;9.756;2023-05-24T03:04:05;-12673.34;;;12.54;100.00
14594;BME280;7383;52.354;9.756;2023-05-24T03:06:31;-12674.22;;;12.59;100.00
14594;BME280;7383;52.354;9.756;2023-05-24T03:08:58;-12673.16;;;12.53;100.00
14594;BME280;7383;52.354;9.756;2023-05-24T03:11:25;-12672.66;;;12.50;100.00
14594;BME280;7383;52.354;9.756;2023-05-24T03:13:52;-12671.50;;;12.43;100.00
14594;BME280;7383;52.354;9.756;2023-05-24T03:16:18;-12672.31;;;12.48;100.00
14594;BME280;7383;52.354;9.756;2023-05-24T03:18:45;-12670.56;;;12.38;100.00
14594;BME280;7383;52.354;9.756;2023-05-24T03:21:14;-12672.13;;;12.47;100.00
14594;BME280;7383;52.354;9.756;2023-05-24T03:23:41;-12672.38;;;12.48;100.00
14594;BME280;7383;52.354;9.756;2023-05-24T03:26:07;-12671.94;;;12.46;100.00
14594;BME280;7383;52.354;9.756;2023-05-24T03:28:35;-12672.22;;;12.47;100.00
14594;BME280;7383;52.354;9.756;2023-05-24T03:31:01;-12672.31;;;12.48;100.00
14594;BME280;7383;52.354;9.756;2023-05-24T03:33:28;-12671.94;;;12.46;100.00
14594;BME280;7383;52.354;9.756;2023-05-24T03:35:54;-12672.03;;;12.46;100.00
14594;BME280;7383;52.354;9.756;2023-05-24T03:38:20;-12672.47;;;12.49;100.00
14594;BME280;7383;52.354;9.756;2023-05-24T03:40:47;-12673.44;;;12.54;100.00
14594;BME280;7383;52.354;9.756;2023-05-24T03:43:13;-12672.22;;;12.47;100.00
14594;BME280;7383;52.354;9.756;2023-05-24T03:45:42;-12672.66;;;12.50;100.00
14594;BME280;7383;52.354;9.756;2023-05-24T03:48:08;-12672.81;;;12.51;100.00
14594;BME280;7383;52.354;9.756;2023-05-24T03:50:35;-12673.53;;;12.55;100.00
14594;BME280;7383;52.354;9.756;2023-05-24T03:53:01;-12673.59;;;12.55;100.00
14594;BME280;7383;52.354;9.756;2023-05-24T03:55:28;-12673.88;;;12.57;100.00
14594;BME280;7383;52.354;9.756;2023-05-24T03:57:54;-12674.22;;;12.59;100.00
14594;BME280;7383;52.354;9.756;2023-05-24T04:00:21;-12674.31;;;12.59;100.00
14594;BME280;7383;52.354;9.756;2023-05-24T04:02:48;-12674.56;;;12.61;100.00
14594;BME280;7383;52.354;9.756;2023-05-24T04:05:15;-12675.19;;;12.64;100.00
14594;BME280;7383;52.354;9.756;2023-05-24T04:07:41;-12675.78;;;12.68;100.00
14594;BME280;7383;52.354;9.756;2023-05-24T04:10:10;-12676.13;;;12.70;100.00
14594;BME280;7383;52.354;9.756;2023-05-24T04:12:36;-12676.31;;;12.71;100.00
14594;BME280;7383;52.354;9.756;2023-05-24T04:15:04;-12676.56;;;12.72;100.00
14594;BME280;7383;52.354;9.756;2023-05-24T04:17:31;-12677.44;;;12.77;100.00
14594;BME280;7383;52.354;9.756;2023-05-24T04:20:00;-12678.31;;;12.82;100.00
14594;BME280;7383;52.354;9.756;2023-05-24T04:22:28;-12678.41;;;12.83;100.00
14594;BME280;7383;52.354;9.756;2023-05-24T04:24:54;-12677.25;;;12.76;100.00
14594;BME280;7383;52.354;9.756;2023-05-24T04:27:21;-12677.34;;;12.77;100.00
14594;BME280;7383;52.354;9.756;2023-05-24T04:29:50;-12678.03;;;12.81;100.00
14594;BME280;7383;52.354;9.756;2023-05-24T04:32:17;-12679.00;;;12.87;100.00
14594;BME280;7383;52.354;9.756;2023-05-24T04:34:44;-12679.53;;;12.90;100.00
14594;BME280;7383;52.354;9.756;2023-05-24T04:37:12;-12679.53;;;12.90;100.00
14594;BME280;7383;52.354;9.756;2023-05-24T04:39:41;-12679.88;;;12.92;100.00
14594;BME280;7383;52.354;9.756;2023-05-24T04:42:07;-12680.13;;;12.93;100.00
14594;BME280;7383;52.354;9.756;2023-05-24T04:44:34;-12678.47;;;12.83;100.00
14594;BME280;7383;52.354;9.756;2023-05-24T04:47:00;-12678.22;;;12.82;100.00
14594;BME280;7383;52.354;9.756;2023-05-24T04:49:28;-12678.91;;;12.86;100.00
14594;BME280;7383;52.354;9.756;2023-05-24T04:51:54;-12680.13;;;12.93;100.00
14594;BME280;7383;52.354;9.756;2023-05-24T04:54:22;-12680.13;;;12.93;100.00
14594;BME280;7383;52.354;9.756;2023-05-24T04:56:49;-12680.13;;;12.93;100.00
14594;BME280;7383;52.354;9.756;2023-05-24T04:59:16;-12680.22;;;12.94;100.00
14594;BME280;7383;52.354;9.756;2023-05-24T05:01:43;-12679.69;;;12.91;100.00
14594;BME280;7383;52.354;9.756;2023-05-24T05:04:10;-12682.47;;;13.07;100.00
14594;BME280;7383;52.354;9.756;2023-05-24T05:06:37;-12682.84;;;13.09;100.00
14594;BME280;7383;52.354;9.756;2023-05-24T05:11:34;-12681.97;;;13.04;100.00
14594;BME280;7383;52.354;9.756;2023-05-24T05:14:01;-12680.47;;;12.95;100.00
14594;BME280;7383;52.354;9.756;2023-05-24T05:16:27;-12680.56;;;12.96;100.00
14594;BME280;7383;52.354;9.756;2023-05-24T05:18:54;-12680.84;;;12.97;100.00
14594;BME280;7383;52.354;9.756;2023-05-24T05:21:20;-12681.09;;;12.99;100.00
14594;BME280;7383;52.354;9.756;2023-05-24T05:23:47;-12680.84;;;12.97;100.00
14594;BME280;7383;52.354;9.756;2023-05-24T05:26:13;-12681.00;;;12.98;100.00
14594;BME280;7383;52.354;9.756;2023-05-24T05:28:41;-12681.09;;;12.99;100.00
14594;BME280;7383;52.354;9.756;2023-05-24T06:40:53;-12692.84;;;13.67;100.00
14594;BME280;7383;52.354;9.756;2023-05-24T06:43:19;-12693.63;;;13.71;100.00
14594;BME280;7383;52.354;9.756;2023-05-24T06:45:46;-12695.09;;;13.80;100.00
14594;BME280;7383;52.354;9.756;2023-05-24T06:48:12;-12697.88;;;13.96;100.00
14594;BME280;7383;52.354;9.756;2023-05-24T06:50:39;-12700.13;;;14.09;100.00
14594;BME280;7383;52.354;9.756;2023-05-24T06:53:09;-12701.16;;;14.15;100.00
14594;BME280;7383;52.354;9.756;2023-05-24T06:55:36;-12702.81;;;14.25;100.00
14594;BME280;7383;52.354;9.756;2023-05-24T06:58:04;-12703.94;;;14.32;100.00
14594;BME280;7383;52.354;9.756;2023-05-24T07:00:31;-12703.34;;;14.28;100.00
14594;BME280;7383;52.354;9.756;2023-05-24T07:02:58;-12702.81;;;14.25;100.00
14594;BME280;7383;52.354;9.756;2023-05-24T07:05:24;-12703.25;;;14.27;100.00
14594;BME280;7383;52.354;9.756;2023-05-24T07:07:51;-12704.38;;;14.34;100.00
14594;BME280;7383;52.354;9.756;2023-05-24T07:10:17;-12704.56;;;14.35;100.00
14594;BME280;7383;52.354;9.756;2023-05-24T07:12:44;-12703.25;;;14.27;100.00
14594;BME280;7383;52.354;9.756;2023-05-24T07:15:12;-12703.09;;;14.26;100.00
14594;BME280;7383;52.354;9.756;2023-05-24T07:17:38;-12703.50;;;14.29;100.00
14594;BME280;7383;52.354;9.756;2023-05-24T07:20:07;-12704.13;;;14.32;100.00
14594;BME280;7383;52.354;9.756;2023-05-24T07:22:35;-12704.31;;;14.34;100.00
14594;BME280;7383;52.354;9.756;2023-05-24T07:25:02;-12704.56;;;14.35;100.00
14594;BME280;7383;52.354;9.756;2023-05-24T07:27:28;-12704.66;;;14.36;100.00
14594;BME280;7383;52.354;9.756;2023-05-24T07:29:55;-12705.09;;;14.38;100.00
14594;BME280;7383;52.354;9.756;2023-05-24T07:32:24;-12705.53;;;14.41;100.00
14594;BME280;7383;52.354;9.756;2023-05-24T07:34:51;-12705.34;;;14.40;100.00
14594;BME280;7383;52.354;9.756;2023-05-24T07:37:18;-12706.91;;;14.49;100.00
14594;BME280;7383;52.354;9.756;2023-05-24T07:39:44;-12708.13;;;14.56;100.00
14594;BME280;7383;52.354;9.756;2023-05-24T07:42:11;-12709.50;;;14.64;100.00
14594;BME280;7383;52.354;9.756;2023-05-24T07:44:37;-12708.28;;;14.57;100.00
14594;BME280;7383;52.354;9.756;2023-05-24T07:47:04;-12709.84;;;14.66;100.00
14594;BME280;7383;52.354;9.756;2023-05-24T07:49:32;-12709.44;;;14.63;100.00
14594;BME280;7383;52.354;9.756;2023-05-24T07:51:59;-12707.50;;;14.52;100.00
14594;BME280;7383;52.354;9.756;2023-05-24T07:54:25;-12706.31;;;14.45;100.00
14594;BME280;7383;52.354;9.756;2023-05-24T07:56:52;-12706.38;;;14.46;100.00
14594;BME280;7383;52.354;9.756;2023-05-24T07:59:18;-12705.53;;;14.41;100.00
14594;BME280;7383;52.354;9.756;2023-05-24T08:01:46;-12706.13;;;14.44;100.00
14594;BME280;7383;52.354;9.756;2023-05-24T08:04:12;-12704.81;;;14.37;100.00
14594;BME280;7383;52.354;9.756;2023-05-24T08:06:40;-12704.31;;;14.34;100.00
14594;BME280;7383;52.354;9.756;2023-05-24T08:09:07;-12703.44;;;14.28;100.00
14594;BME280;7383;52.354;9.756;2023-05-24T08:11:33;-12702.91;;;14.25;100.00
14594;BME280;7383;52.354;9.756;2023-05-24T08:14:00;-12702.13;;;14.21;100.00
14594;BME280;7383;52.354;9.756;2023-05-24T08:16:26;-12702.38;;;14.22;100.00
14594;BME280;7383;52.354;9.756;2023-05-24T08:18:52;-12704.13;;;14.32;100.00
14594;BME280;7383;52.354;9.756;2023-05-24T08:21:19;-12706.91;;;14.49;100.00
14594;BME280;7383;52.354;9.756;2023-05-24T08:23:47;-12708.81;;;14.60;100.00
14594;BME280;7383;52.354;9.756;2023-05-24T08:26:13;-12710.81;;;14.71;100.00
14594;BME280;7383;52.354;9.756;2023-05-24T08:28:43;-12710.22;;;14.68;100.00
14594;BME280;7383;52.354;9.756;2023-05-24T08:31:09;-12710.63;;;14.70;100.00
14594;BME280;7383;52.354;9.756;2023-05-24T08:33:36;-12709.84;;;14.66;100.00
14594;BME280;7383;52.354;9.756;2023-05-24T08:36:03;-12709.59;;;14.64;100.00
14594;BME280;7383;52.354;9.756;2023-05-24T08:38:29;-12709.25;;;14.62;100.00
14594;BME280;7383;52.354;9.756;2023-05-24T08:40:57;-12708.72;;;14.59;100.00
14594;BME280;7383;52.354;9.756;2023-05-24T08:43:25;-12708.28;;;14.57;100.00
14594;BME280;7383;52.354;9.756;2023-05-24T08:45:52;-12708.28;;;14.57;100.00
14594;BME280;7383;52.354;9.756;2023-05-24T08:48:19;-12709.00;;;14.61;100.00
14594;BME280;7383;52.354;9.756;2023-05-24T08:50:46;-12708.13;;;14.56;100.00
14594;BME280;7383;52.354;9.756;2023-05-24T08:53:13;-12707.94;;;14.55;100.00
14594;BME280;7383;52.354;9.756;2023-05-24T08:55:40;-12708.72;;;14.59;100.00
14594;BME280;7383;52.354;9.756;2023-05-24T08:58:10;-12707.94;;;14.55;100.00
14594;BME280;7383;52.354;9.756;2023-05-24T09:00:36;-12706.38;;;14.46;100.00
14594;BME280;7383;52.354;9.756;2023-05-24T09:03:03;-12706.47;;;14.46;100.00
14594;BME280;7383;52.354;9.756;2023-05-24T09:05:31;-12706.03;;;14.44;100.00
14594;BME280;7383;52.354;9.756;2023-05-24T09:07:59;-12705.44;;;14.40;100.00
14594;BME280;7383;52.354;9.756;2023-05-24T09:10:27;-12706.03;;;14.44;100.00
14594;BME280;7383;52.354;9.756;2023-05-24T09:12:55;-12705.25;;;14.39;100.00
14594;BME280;7383;52.354;9.756;2023-05-24T09:15:24;-12706.47;;;14.46;100.00
14594;BME280;7383;52.354;9.756;2023-05-24T09:17:50;-12705.88;;;14.43;100.00
14594;BME280;7383;52.354;9.756;2023-05-24T09:20:17;-12706.81;;;14.48;100.00
14594;BME280;7383;52.354;9.756;2023-05-24T09:22:49;-12707.16;;;14.50;100.00
14594;BME280;7383;52.354;9.756;2023-05-24T09:25:17;-12708.63;;;14.59;100.00
14594;BME280;7383;52.354;9.756;2023-05-24T09:27:48;-12710.47;;;14.69;100.00
14594;BME280;7383;52.354;9.756;2023-05-24T09:30:15;-12711.75;;;14.77;100.00
14594;BME280;7383;52.354;9.756;2023-05-24T09:32:53;-12713.31;;;14.86;100.00
14594;BME280;7383;52.354;9.756;2023-05-24T09:35:20;-12714.53;;;14.93;100.00
14594;BME280;7383;52.354;9.756;2023-05-24T09:37:46;-12715.94;;;15.01;100.00
14594;BME280;7383;52.354;9.756;2023-05-24T09:40:16;-12716.53;;;15.05;100.00
14594;BME280;7383;52.354;9.756;2023-05-24T09:42:44;-12716.09;;;15.02;100.00
14594;BME280;7383;52.354;9.756;2023-05-24T09:45:11;-12715.75;;;15.00;100.00
14594;BME280;7383;52.354;9.756;2023-05-24T09:47:38;-12715.06;;;14.96;100.00
14594;BME280;7383;52.354;9.756;2023-05-24T09:50:12;-12713.75;;;14.89;100.00
14594;BME280;7383;52.354;9.756;2023-05-24T09:52:39;-12712.28;;;14.80;100.00
14594;BME280;7383;52.354;9.756;2023-05-24T09:55:12;-12711.94;;;14.78;100.00
14594;BME280;7383;52.354;9.756;2023-05-24T09:57:39;-12711.94;;;14.78;100.00
14594;BME280;7383;52.354;9.756;2023-05-24T10:00:07;-12712.81;;;14.83;100.00
14594;BME280;7383;52.354;9.756;2023-05-24T10:02:41;-12714.38;;;14.92;100.00
14594;BME280;7383;52.354;9.756;2023-05-24T10:05:10;-12714.72;;;14.94;100.00
14594;BME280;7383;52.354;9.756;2023-05-24T10:07:37;-12713.31;;;14.86;100.00
14594;BME280;7383;52.354;9.756;2023-05-24T10:10:06;-12712.88;;;14.84;100.00
14594;BME280;7383;52.354;9.756;2023-05-24T10:12:33;-12713.16;;;14.85;100.00
14594;BME280;7383;52.354;9.756;2023-05-24T10:15:02;-12714.19;;;14.91;100.00
14594;BME280;7383;52.354;9.756;2023-05-24T10:17:28;-12714.81;;;14.95;100.00
14594;BME280;7383;52.354;9.756;2023-05-24T10:19:55;-12714.03;;;14.90;100.00
14594;BME280;7383;52.354;9.756;2023-05-24T10:22:24;-12714.53;;;14.93;100.00
14594;BME280;7383;52.354;9.756;2023-05-24T10:24:52;-12714.19;;;14.91;100.00
14594;BME280;7383;52.354;9.756;2023-05-24T10:27:26;-12712.19;;;14.79;100.00
14594;BME280;7383;52.354;9.756;2023-05-24T10:30:00;-12710.56;;;14.70;100.00
14594;BME280;7383;52.354;9.756;2023-05-24T10:32:31;-12709.59;;;14.64;100.00
14594;BME280;7383;52.354;9.756;2023-05-24T10:35:00;-12709.34;;;14.63;100.00
14594;BME280;7383;52.354;9.756;2023-05-24T10:37:29;-12708.91;;;14.60;100.00
14594;BME280;7383;52.354;9.756;2023-05-24T10:39:58;-12708.28;;;14.57;100.00
14594;BME280;7383;52.354;9.756;2023-05-24T10:42:25;-12707.59;;;14.53;100.00
14594;BME280;7383;52.354;9.756;2023-05-24T10:44:51;-12707.50;;;14.52;100.00
14594;BME280;7383;52.354;9.756;2023-05-24T10:47:19;-12706.91;;;14.49;100.00
14594;BME280;7383;52.354;9.756;2023-05-24T10:49:47;-12706.66;;;14.47;100.00
14594;BME280;7383;52.354;9.756;2023-05-24T10:52:15;-12707.25;;;14.51;100.00
14594;BME280;7383;52.354;9.756;2023-05-24T10:55:00;-12708.13;;;14.56;100.00
14594;BME280;7383;52.354;9.756;2023-05-24T10:57:28;-12708.28;;;14.57;100.00
14594;BME280;7383;52.354;9.756;2023-05-24T10:59:55;-12707.00;;;14.49;100.00
14594;BME280;7383;52.354;9.756;2023-05-24T11:02:26;-12707.25;;;14.51;100.00
14594;BME280;7383;52.354;9.756;2023-05-24T11:04:53;-12707.00;;;14.49;100.00
14594;BME280;7383;52.354;9.756;2023-05-24T11:07:20;-12708.03;;;14.55;100.00
14594;BME280;7383;52.354;9.756;2023-05-24T11:09:47;-12709.59;;;14.64;100.00
14594;BME280;7383;52.354;9.756;2023-05-24T11:12:21;-12710.81;;;14.71;100.00
14594;BME280;7383;52.354;9.756;2023-05-24T11:14:49;-12711.41;;;14.75;100.00
14594;BME280;7383;52.354;9.756;2023-05-24T11:17:18;-12712.38;;;14.81;100.00
14594;BME280;7383;52.354;9.756;2023-05-24T11:19:46;-12712.63;;;14.82;100.00
14594;BME280;7383;52.354;9.756;2023-05-24T11:22:13;-12711.75;;;14.77;100.00
14594;BME280;7383;52.354;9.756;2023-05-24T11:24:41;-12711.59;;;14.76;100.00
14594;BME280;7383;52.354;9.756;2023-05-24T11:27:10;-12712.38;;;14.81;100.00
14594;BME280;7383;52.354;9.756;2023-05-24T11:29:42;-12712.81;;;14.83;100.00
14594;BME280;7383;52.354;9.756;2023-05-24T11:32:13;-12712.88;;;14.84;100.00
14594;BME280;7383;52.354;9.756;2023-05-24T11:34:40;-12712.88;;;14.84;100.00
14594;BME280;7383;52.354;9.756;2023-05-24T11:37:09;-12712.97;;;14.84;100.00
14594;BME280;7383;52.354;9.756;2023-05-24T11:39:36;-12713.41;;;14.87;100.00
14594;BME280;7383;52.354;9.756;2023-05-24T11:42:04;-12714.88;;;14.95;100.00
14594;BME280;7383;52.354;9.756;2023-05-24T11:44:31;-12715.50;;;14.99;100.00
14594;BME280;7383;52.354;9.756;2023-05-24T11:47:00;-12717.22;;;15.09;100.00
14594;BME280;7383;52.354;9.756;2023-05-24T11:49:27;-12717.66;;;15.11;100.00
14594;BME280;7383;52.354;9.756;2023-05-24T11:51:55;-12718.34;;;15.15;100.00
14594;BME280;7383;52.354;9.756;2023-05-24T11:54:21;-12717.50;;;15.10;100.00
14594;BME280;7383;52.354;9.756;2023-05-24T11:56:48;-12718.63;;;15.17;100.00
14594;BME280;7383;52.354;9.756;2023-05-24T11:59:16;-12720.53;;;15.28;100.00
14594;BME280;7383;52.354;9.756;2023-05-24T12:01:44;-12723.13;;;15.43;100.00
14594;BME280;7383;52.354;9.756;2023-05-24T12:04:12;-12725.22;;;15.55;100.00
14594;BME280;7383;52.354;9.756;2023-05-24T12:06:39;-12728.06;;;15.72;100.00
14594;BME280;7383;52.354;9.756;2023-05-24T12:09:06;-12729.28;;;15.79;100.00
14594;BME280;7383;52.354;9.756;2023-05-24T12:11:37;-12729.97;;;15.83;100.00
14594;BME280;7383;52.354;9.756;2023-05-24T12:14:05;-12731.19;;;15.90;100.00
14594;BME280;7383;52.354;9.756;2023-05-24T12:16:32;-12731.53;;;15.92;100.00
14594;BME280;7383;52.354;9.756;2023-05-24T12:19:00;-12731.09;;;15.90;100.00
14594;BME280;7383;52.354;9.756;2023-05-24T12:21:30;-12731.63;;;15.93;100.00
14594;BME280;7383;52.354;9.756;2023-05-24T12:24:07;-12732.03;;;15.95;100.00
14594;BME280;7383;52.354;9.756;2023-05-24T12:26:34;-12732.13;;;15.96;100.00
14594;BME280;7383;52.354;9.756;2023-05-24T12:29:01;-12732.41;;;15.97;100.00
14594;BME280;7383;52.354;9.756;2023-05-24T12:31:28;-12732.22;;;15.96;100.00
14594;BME280;7383;52.354;9.756;2023-05-24T12:33:55;-12733.25;;;16.02;100.00
14594;BME280;7383;52.354;9.756;2023-05-24T12:36:22;-12733.44;;;16.03;100.00
14594;BME280;7383;52.354;9.756;2023-05-24T12:38:49;-12735.06;;;16.13;100.00
14594;BME280;7383;52.354;9.756;2023-05-24T12:41:16;-12737.66;;;16.28;100.00
14594;BME280;7383;52.354;9.756;2023-05-24T12:43:44;-12742.34;;;16.55;100.00
14594;BME280;7383;52.354;9.756;2023-05-24T12:46:10;-12747.44;;;16.85;100.00
14594;BME280;7383;52.354;9.756;2023-05-24T12:48:38;-12751.78;;;17.10;100.00
14594;BME280;7383;52.354;9.756;2023-05-24T12:51:04;-12757.22;;;17.42;100.00
14594;BME280;7383;52.354;9.756;2023-05-24T12:53:32;-12762.31;;;17.72;100.00
14594;BME280;7383;52.354;9.756;2023-05-24T12:56:00;-12765.59;;;17.91;100.00
14594;BME280;7383;52.354;9.756;2023-05-24T12:58:27;-12770.00;;;18.17;100.00
14594;BME280;7383;52.354;9.756;2023-05-24T13:00:53;-12772.41;;;18.31;100.00
14594;BME280;7383;52.354;9.756;2023-05-24T13:03:20;-12774.56;;;18.44;100.00
14594;BME280;7383;52.354;9.756;2023-05-24T13:05:46;-12772.41;;;18.31;100.00
14594;BME280;7383;52.354;9.756;2023-05-24T13:08:13;-12769.72;;;18.15;100.00
14594;BME280;7383;52.354;9.756;2023-05-24T13:10:40;-12769.38;;;18.13;100.00
14594;BME280;7383;52.354;9.756;2023-05-24T13:13:08;-12768.09;;;18.06;100.00
14594;BME280;7383;52.354;9.756;2023-05-24T13:15:34;-12766.63;;;17.97;100.00
14594;BME280;7383;52.354;9.756;2023-05-24T13:18:02;-12765.16;;;17.89;100.00
14594;BME280;7383;52.354;9.756;2023-05-24T13:20:28;-12763.44;;;17.79;100.00
14594;BME280;7383;52.354;9.756;2023-05-24T13:22:55;-12761.09;;;17.65;100.00
14594;BME280;7383;52.354;9.756;2023-05-24T13:25:22;-12757.81;;;17.46;100.00
14594;BME280;7383;52.354;9.756;2023-05-24T13:27:48;-12755.31;;;17.31;100.00
14594;BME280;7383;52.354;9.756;2023-05-24T13:30:16;-12753.59;;;17.21;100.00
14594;BME280;7383;52.354;9.756;2023-05-24T13:32:43;-12751.16;;;17.07;100.00
14594;BME280;7383;52.354;9.756;2023-05-24T13:35:10;-12749.00;;;16.94;100.00
14594;BME280;7383;52.354;9.756;2023-05-24T13:37:36;-12747.28;;;16.84;100.00
14594;BME280;7383;52.354;9.756;2023-05-24T13:40:03;-12745.63;;;16.75;100.00
14594;BME280;7383;52.354;9.756;2023-05-24T13:42:30;-12743.56;;;16.62;100.00
14594;BME280;7383;52.354;9.756;2023-05-24T13:44:56;-12741.75;;;16.52;100.00
14594;BME280;7383;52.354;9.756;2023-05-24T13:47:25;-12741.56;;;16.51;100.00
14594;BME280;7383;52.354;9.756;2023-05-24T13:49:52;-12741.81;;;16.52;100.00
14594;BME280;7383;52.354;9.756;2023-05-24T13:52:20;-12745.13;;;16.71;100.00
14594;BME280;7383;52.354;9.756;2023-05-24T13:54:47;-12750.66;;;17.04;100.00
14594;BME280;7383;52.354;9.756;2023-05-24T13:57:15;-12751.84;;;17.11;100.00
14594;BME280;7383;52.354;9.756;2023-05-24T13:59:41;-12753.75;;;17.22;100.00
14594;BME280;7383;52.354;9.756;2023-05-24T14:02:08;-12756.09;;;17.36;100.00
14594;BME280;7383;52.354;9.756;2023-05-24T14:04:36;-12758.94;;;17.52;100.00
14594;BME280;7383;52.354;9.756;2023-05-24T14:07:02;-12760.94;;;17.64;100.00
14594;BME280;7383;52.354;9.756;2023-05-24T14:09:32;-12760.50;;;17.61;100.00